Time;durP1;ratioP1;P1;durP2;ratioP2;P2;SDS_P1;SDS_P2;PMS_P1;PMS_P2;Temp;Humidity;BMP_temperature;BMP_pressure;BME280_temperature;BME280_humidity;BME280_pressure;Samples;Min_cycle;Max_cycle;Signal;HPM_P1;HPM_P2
2022/12/07 00:02:16;;;;;;;;;;;7.20;78.50;;;;;;5038702;28;93223;-41
2022/12/07 00:04:41;;;;;;;;;;;7.20;78.50;;;;;;5039173;28;92167;-41
2022/12/07 00:07:07;;;;;;;;;;;7.20;78.50;;;;;;5039372;28;92493;-41
2022/12/07 00:09:32;;;;;;;;;;;7.20;78.50;;;;;;5038269;28;93044;-41
2022/12/07 00:11:58;;;;;;;;;;;7.20;78.50;;;;;;5039250;28;92139;-41
2022/12/07 00:14:23;;;;;;;;;;;7.20;78.50;;;;;;5039391;27;93795;-40
2022/12/07 00:16:50;;;;;;;;;;;7.20;78.50;;;;;;5041476;28;93121;-40
2022/12/07 00:19:16;;;;;;;;;;;7.20;78.50;;;;;;5038837;28;93950;-40
2022/12/07 00:21:41;;;;;;;;;;;7.20;78.50;;;;;;5038148;28;94185;-40
2022/12/07 00:24:07;;;;;;;;;;;7.20;78.50;;;;;;5038889;28;92170;-40
2022/12/07 00:26:37;;;;;;;;;;;7.20;78.50;;;;;;5039061;28;92441;-40
2022/12/07 00:29:04;;;;;;;;;;;7.20;78.50;;;;;;5040000;27;92984;-40
2022/12/07 00:31:38;;;;;;;;;;;7.20;78.50;;;;;;5042571;28;92051;-40
2022/12/07 00:34:04;;;;;;;;;;;7.20;78.50;;;;;;5042310;28;93994;-40
2022/12/07 00:36:29;;;;;;;;;;;7.20;78.50;;;;;;5041883;28;92550;-40
2022/12/07 00:38:57;;;;;;;;;;;7.20;78.50;;;;;;5045749;28;91371;-40
2022/12/07 00:41:23;;;;;;;;;;;7.20;78.50;;;;;;5041707;28;92978;-40
2022/12/07 00:43:49;;;;;;;;;;;7.20;78.50;;;;;;5042123;28;92156;-40
2022/12/07 00:46:15;;;;;;;;;;;7.20;78.50;;;;;;5041035;27;92921;-40
2022/12/07 00:48:40;;;;;;;;;;;7.20;78.50;;;;;;5041524;28;93061;-40
2022/12/07 00:51:06;;;;;;;;;;;7.20;78.50;;;;;;5042166;28;92471;-41
2022/12/07 00:53:35;;;;;;;;;;;7.20;78.50;;;;;;5042090;27;92171;-41
2022/12/07 00:56:07;;;;;;;;;;;7.20;79.00;;;;;;5041439;28;92186;-41
2022/12/07 00:58:33;;;;;;;;;;;7.20;78.50;;;;;;5045228;28;92209;-41
2022/12/07 01:01:03;;;;;;;;;;;7.20;78.50;;;;;;5041570;28;93042;-41
2022/12/07 01:03:28;;;;;;;;;;;7.20;78.50;;;;;;5042505;28;91418;-41
2022/12/07 01:05:54;;;;;;;;;;;7.20;78.50;;;;;;5041764;28;92079;-41
2022/12/07 01:08:21;;;;;;;;;;;7.20;78.50;;;;;;5041048;28;94146;-41
2022/12/07 01:10:46;;;;;;;;;;;7.20;78.50;;;;;;5041264;28;93111;-41
2022/12/07 01:13:12;;;;;;;;;;;7.20;78.50;;;;;;5041516;27;94899;-40
2022/12/07 01:15:41;;;;;;;;;;;7.20;78.50;;;;;;5041384;28;93543;-40
2022/12/07 01:18:06;;;;;;;;;;;7.20;78.50;;;;;;5041802;28;92155;-40
2022/12/07 01:20:32;;;;;;;;;;;7.20;78.50;;;;;;5044276;28;92416;-40
2022/12/07 01:22:57;;;;;;;;;;;7.20;78.50;;;;;;5040962;28;92121;-40
2022/12/07 01:25:23;;;;;;;;;;;7.20;78.50;;;;;;5041739;28;92287;-40
2022/12/07 01:27:48;;;;;;;;;;;7.20;78.50;;;;;;5041282;28;92449;-40
2022/12/07 01:30:14;;;;;;;;;;;7.20;78.50;;;;;;5041385;28;92177;-40
2022/12/07 01:32:39;;;;;;;;;;;7.20;78.50;;;;;;5041175;27;93672;-40
2022/12/07 01:35:05;;;;;;;;;;;7.20;78.50;;;;;;5040320;28;93895;-40
2022/12/07 01:37:35;;;;;;;;;;;7.20;78.50;;;;;;5041094;28;92177;-40
2022/12/07 01:40:00;;;;;;;;;;;7.20;78.50;;;;;;5040422;27;93892;-40
2022/12/07 01:42:27;;;;;;;;;;;7.20;78.50;;;;;;5043857;28;93202;-40
2022/12/07 01:45:11;;;;;;;;;;;7.20;78.50;;;;;;5040684;27;92349;-40
2022/12/07 01:47:37;;;;;;;;;;;7.20;78.40;;;;;;5040790;28;93037;-41
2022/12/07 01:50:03;;;;;;;;;;;7.20;78.50;;;;;;5041140;28;92181;-41
2022/12/07 01:52:31;;;;;;;;;;;7.20;78.40;;;;;;5041839;27;91906;-41
2022/12/07 01:54:59;;;;;;;;;;;7.20;78.50;;;;;;5040299;28;93043;-41
2022/12/07 01:57:24;;;;;;;;;;;7.20;78.40;;;;;;5041079;28;92208;-41
2022/12/07 01:59:51;;;;;;;;;;;7.20;78.40;;;;;;5040430;27;93056;-40
2022/12/07 02:02:23;;;;;;;;;;;7.20;78.40;;;;;;5040267;28;93322;-40
2022/12/07 02:04:48;;;;;;;;;;;7.20;78.30;;;;;;5044026;28;92151;-40
2022/12/07 02:07:14;;;;;;;;;;;7.20;78.30;;;;;;5040358;28;93138;-40
2022/12/07 02:09:40;;;;;;;;;;;7.20;78.40;;;;;;5040875;28;92144;-41
2022/12/07 02:12:06;;;;;;;;;;;7.20;78.30;;;;;;5041068;28;92387;-41
2022/12/07 02:14:31;;;;;;;;;;;7.20;78.30;;;;;;5040154;28;94775;-40
2022/12/07 02:16:56;;;;;;;;;;;7.20;78.30;;;;;;5041039;28;91425;-40
2022/12/07 02:19:45;;;;;;;;;;;7.20;78.30;;;;;;5040728;27;92089;-40
2022/12/07 02:22:20;;;;;;;;;;;7.20;78.30;;;;;;5040297;28;93128;-40
2022/12/07 02:24:54;;;;;;;;;;;7.20;78.30;;;;;;5040097;28;92886;-40
2022/12/07 02:27:28;;;;;;;;;;;7.20;78.30;;;;;;5043047;27;93309;-41
2022/12/07 02:30:01;;;;;;;;;;;7.20;78.30;;;;;;5040266;28;92195;-41
2022/12/07 02:32:27;;;;;;;;;;;7.20;78.30;;;;;;5040669;28;92371;-41
2022/12/07 02:34:57;;;;;;;;;;;7.20;78.30;;;;;;5039945;28;92229;-41
2022/12/07 02:37:25;;;;;;;;;;;7.20;78.20;;;;;;5040296;28;92160;-41
2022/12/07 02:39:53;;;;;;;;;;;7.20;78.30;;;;;;5040292;28;92539;-40
2022/12/07 02:42:23;;;;;;;;;;;7.20;78.30;;;;;;5040314;28;92425;-40
2022/12/07 02:44:49;;;;;;;;;;;7.20;78.30;;;;;;5039507;28;92179;-40
2022/12/07 02:47:16;;;;;;;;;;;7.20;78.30;;;;;;5043069;28;92111;-40
2022/12/07 02:49:42;;;;;;;;;;;7.20;78.30;;;;;;5039404;28;92985;-40
2022/12/07 02:52:07;;;;;;;;;;;7.20;78.30;;;;;;5039094;27;93385;-40
2022/12/07 02:54:33;;;;;;;;;;;7.20;78.40;;;;;;5039596;28;92869;-40
2022/12/07 02:56:58;;;;;;;;;;;7.20;78.40;;;;;;5039830;28;92032;-40
2022/12/07 02:59:30;;;;;;;;;;;7.20;78.30;;;;;;5040226;28;92082;-40
2022/12/07 03:01:58;;;;;;;;;;;7.20;78.30;;;;;;5039680;28;93511;-40
2022/12/07 03:04:33;;;;;;;;;;;7.20;78.30;;;;;;5040013;28;92113;-40
2022/12/07 03:07:05;;;;;;;;;;;7.20;78.30;;;;;;5040477;28;92769;-40
2022/12/07 03:09:37;;;;;;;;;;;7.20;78.30;;;;;;5042047;28;94104;-40
2022/12/07 03:12:09;;;;;;;;;;;7.20;78.40;;;;;;5039839;27;92280;-40
2022/12/07 03:14:37;;;;;;;;;;;7.20;78.40;;;;;;5038864;28;94295;-40
2022/12/07 03:17:10;;;;;;;;;;;7.20;78.40;;;;;;5039974;28;92213;-41
2022/12/07 03:19:36;;;;;;;;;;;7.20;78.30;;;;;;5039616;28;92414;-41
2022/12/07 03:22:09;;;;;;;;;;;7.20;78.30;;;;;;5039129;28;93893;-41
2022/12/07 03:25:04;;;;;;;;;;;7.20;78.30;;;;;;5039743;28;92150;-40
2022/12/07 03:27:35;;;;;;;;;;;7.20;78.30;;;;;;5029710;27;92478;-40
2022/12/07 03:30:06;;;;;;;;;;;7.20;78.30;;;;;;5038948;28;93043;-40
2022/12/07 03:32:35;;;;;;;;;;;7.20;78.30;;;;;;5043064;28;91394;-40
2022/12/07 03:35:00;;;;;;;;;;;7.20;78.30;;;;;;5038955;28;93191;-40
2022/12/07 03:37:32;;;;;;;;;;;7.20;78.30;;;;;;5039727;28;92527;-40
2022/12/07 03:39:58;;;;;;;;;;;7.20;78.40;;;;;;5038807;28;93062;-40
2022/12/07 03:42:23;;;;;;;;;;;7.20;78.30;;;;;;5039172;28;93054;-40
2022/12/07 03:44:49;;;;;;;;;;;7.20;78.40;;;;;;5038581;28;92150;-40
2022/12/07 03:47:15;;;;;;;;;;;7.20;78.40;;;;;;5039509;28;92423;-40
2022/12/07 03:49:45;;;;;;;;;;;7.20;78.30;;;;;;5038800;28;93695;-40
2022/12/07 03:52:17;;;;;;;;;;;7.20;78.30;;;;;;5039536;28;92183;-40
2022/12/07 03:54:49;;;;;;;;;;;7.20;78.40;;;;;;5042170;28;92536;-40
2022/12/07 03:57:15;;;;;;;;;;;7.20;78.40;;;;;;5039605;28;91439;-40
2022/12/07 03:59:41;;;;;;;;;;;7.20;78.40;;;;;;5039372;27;92016;-40
2022/12/07 04:02:07;;;;;;;;;;;7.20;78.30;;;;;;5038662;28;92996;-40
2022/12/07 04:04:33;;;;;;;;;;;7.20;78.40;;;;;;5041190;27;93085;-40
2022/12/07 04:06:59;;;;;;;;;;;7.20;78.30;;;;;;5042852;27;93073;-40
2022/12/07 04:09:25;;;;;;;;;;;7.20;78.40;;;;;;5042273;28;93017;-40
2022/12/07 04:11:50;;;;;;;;;;;7.20;78.30;;;;;;5042535;28;92126;-41
2022/12/07 04:14:19;;;;;;;;;;;7.20;78.50;;;;;;5042481;27;93916;-41
2022/12/07 04:16:44;;;;;;;;;;;7.20;78.30;;;;;;5045204;28;93296;-41
2022/12/07 04:19:10;;;;;;;;;;;7.20;78.40;;;;;;5042722;28;91963;-41
2022/12/07 04:21:36;;;;;;;;;;;7.20;78.50;;;;;;5042734;28;92340;-40
2022/12/07 04:24:01;;;;;;;;;;;7.20;78.50;;;;;;5042779;28;92089;-40
2022/12/07 04:26:27;;;;;;;;;;;7.20;78.50;;;;;;5042674;28;92454;-40
2022/12/07 04:28:52;;;;;;;;;;;7.20;78.40;;;;;;5041065;28;94484;-40
2022/12/07 04:31:18;;;;;;;;;;;7.20;78.40;;;;;;5042684;28;92158;-40
2022/12/07 04:33:43;;;;;;;;;;;7.20;78.40;;;;;;5042691;28;92479;-40
2022/12/07 04:36:09;;;;;;;;;;;7.20;78.40;;;;;;5041786;28;93232;-40
2022/12/07 04:38:34;;;;;;;;;;;7.20;78.30;;;;;;5045356;28;92178;-40
2022/12/07 04:41:04;;;;;;;;;;;7.20;78.40;;;;;;5041851;28;93121;-40
2022/12/07 04:43:30;;;;;;;;;;;7.20;78.50;;;;;;5042100;27;92135;-40
2022/12/07 04:45:55;;;;;;;;;;;7.20;78.50;;;;;;5042122;28;94874;-40
2022/12/07 04:48:20;;;;;;;;;;;7.20;78.40;;;;;;5041718;28;93141;-40
2022/12/07 04:50:48;;;;;;;;;;;7.20;78.40;;;;;;5042249;28;91904;-40
2022/12/07 04:53:14;;;;;;;;;;;7.20;78.50;;;;;;5041653;27;92916;-40
2022/12/07 04:55:39;;;;;;;;;;;7.20;78.40;;;;;;5041567;28;93259;-40
2022/12/07 04:58:05;;;;;;;;;;;7.20;78.40;;;;;;5045053;28;92238;-40
2022/12/07 05:00:30;;;;;;;;;;;7.20;78.40;;;;;;5041463;28;93116;-40
2022/12/07 05:02:56;;;;;;;;;;;7.20;79.00;;;;;;5042002;28;92175;-40
2022/12/07 05:05:21;;;;;;;;;;;7.20;78.40;;;;;;5041952;28;92389;-40
2022/12/07 05:07:47;;;;;;;;;;;7.20;78.50;;;;;;5041526;28;92222;-40
2022/12/07 05:10:12;;;;;;;;;;;7.20;78.50;;;;;;5042258;28;91329;-41
2022/12/07 05:12:38;;;;;;;;;;;7.20;78.40;;;;;;5041813;28;92089;-41
2022/12/07 05:15:04;;;;;;;;;;;7.20;78.40;;;;;;5040282;27;92177;-41
2022/12/07 05:17:29;;;;;;;;;;;7.20;78.40;;;;;;5040813;27;93079;-41
2022/12/07 05:19:55;;;;;;;;;;;7.20;78.40;;;;;;5044361;28;93313;-40
2022/12/07 05:22:21;;;;;;;;;;;7.20;78.40;;;;;;5041734;28;92771;-40
2022/12/07 05:24:46;;;;;;;;;;;7.20;78.40;;;;;;5041589;27;93879;-41
2022/12/07 05:27:12;;;;;;;;;;;7.20;78.30;;;;;;5040608;28;93005;-41
2022/12/07 05:29:37;;;;;;;;;;;7.20;78.40;;;;;;5041467;28;92176;-41
2022/12/07 05:32:03;;;;;;;;;;;7.20;78.40;;;;;;5041432;28;92516;-41
2022/12/07 05:34:28;;;;;;;;;;;7.20;78.50;;;;;;5041604;28;92300;-40
2022/12/07 05:36:54;;;;;;;;;;;7.10;78.30;;;;;;5039788;28;92211;-40
2022/12/07 05:39:19;;;;;;;;;;;7.20;78.40;;;;;;5041385;28;92681;-40
2022/12/07 05:44:29;;;;;;;;;;;7.20;78.40;;;;;;5041365;28;92478;-40
2022/12/07 05:46:54;;;;;;;;;;;7.20;78.40;;;;;;5040401;28;94408;-40
2022/12/07 05:49:20;;;;;;;;;;;7.20;78.40;;;;;;5041342;28;92158;-40
2022/12/07 05:51:45;;;;;;;;;;;7.20;78.40;;;;;;5041405;28;92812;-40
2022/12/07 05:54:11;;;;;;;;;;;7.20;78.40;;;;;;5040637;28;92911;-41
2022/12/07 05:56:37;;;;;;;;;;;7.20;78.40;;;;;;5041060;28;92615;-41
2022/12/07 06:01:46;;;;;;;;;;;7.20;78.40;;;;;;5040670;28;92183;-40
2022/12/07 06:04:12;;;;;;;;;;;7.20;78.40;;;;;;5044004;28;92217;-40
2022/12/07 06:06:37;;;;;;;;;;;7.20;78.40;;;;;;5039904;28;93968;-40
2022/12/07 06:09:03;;;;;;;;;;;7.20;78.40;;;;;;5040446;28;92170;-41
2022/12/07 06:14:13;;;;;;;;;;;7.20;78.40;;;;;;5040481;28;92199;-41
2022/12/07 06:16:38;;;;;;;;;;;7.20;78.50;;;;;;5040805;28;92588;-41
2022/12/07 06:19:04;;;;;;;;;;;7.20;78.40;;;;;;5040651;27;92598;-41
2022/12/07 06:21:29;;;;;;;;;;;7.20;78.40;;;;;;5040144;28;94202;-41
2022/12/07 06:23:55;;;;;;;;;;;7.20;78.40;;;;;;5041301;28;91409;-41
2022/12/07 06:26:21;;;;;;;;;;;7.20;78.30;;;;;;5042960;27;92178;-40
2022/12/07 06:28:46;;;;;;;;;;;7.20;78.30;;;;;;5040610;28;92149;-40
2022/12/07 06:31:12;;;;;;;;;;;7.20;78.30;;;;;;5040142;28;93166;-40
2022/12/07 06:33:37;;;;;;;;;;;7.20;78.30;;;;;;5040134;28;93458;-40
2022/12/07 06:36:03;;;;;;;;;;;7.20;78.30;;;;;;5040518;28;92214;-40
2022/12/07 06:38:28;;;;;;;;;;;7.20;78.20;;;;;;5040095;28;94059;-40
2022/12/07 06:40:54;;;;;;;;;;;7.20;78.20;;;;;;5040141;28;93109;-40
2022/12/07 06:43:20;;;;;;;;;;;7.20;78.30;;;;;;5040271;28;92086;-40
2022/12/07 06:45:45;;;;;;;;;;;7.20;78.20;;;;;;5039903;28;96613;-41
2022/12/07 06:48:11;;;;;;;;;;;7.20;78.20;;;;;;5043806;28;92317;-40
2022/12/07 06:50:36;;;;;;;;;;;7.20;78.10;;;;;;5040511;28;91996;-41
2022/12/07 06:53:02;;;;;;;;;;;7.20;78.10;;;;;;5039458;28;93186;-40
2022/12/07 06:55:27;;;;;;;;;;;7.20;78.10;;;;;;5039599;28;93034;-41
2022/12/07 06:57:53;;;;;;;;;;;7.20;78.10;;;;;;5040233;28;93308;-40
2022/12/07 07:00:18;;;;;;;;;;;7.20;78.10;;;;;;5039426;28;93040;-40
2022/12/07 07:02:44;;;;;;;;;;;7.20;78.10;;;;;;5040034;28;92117;-40
2022/12/07 07:05:09;;;;;;;;;;;7.20;78.10;;;;;;5040130;28;92612;-41
2022/12/07 07:07:35;;;;;;;;;;;7.20;78.00;;;;;;5042259;28;94771;-40
2022/12/07 07:10:00;;;;;;;;;;;7.20;78.10;;;;;;5040025;28;92369;-40
2022/12/07 07:12:26;;;;;;;;;;;7.20;78.10;;;;;;5040272;28;92397;-40
2022/12/07 07:14:51;;;;;;;;;;;7.20;78.00;;;;;;5039689;28;92535;-40
2022/12/07 07:17:17;;;;;;;;;;;7.20;78.00;;;;;;5039756;27;93597;-40
2022/12/07 07:19:42;;;;;;;;;;;7.20;78.00;;;;;;5038551;28;94233;-40
2022/12/07 07:22:08;;;;;;;;;;;7.20;78.10;;;;;;5039623;28;92176;-40
2022/12/07 07:24:33;;;;;;;;;;;7.20;78.00;;;;;;5039736;28;92280;-40
2022/12/07 07:26:59;;;;;;;;;;;7.20;78.00;;;;;;5039155;28;92910;-40
2022/12/07 07:29:24;;;;;;;;;;;7.20;78.00;;;;;;5042575;28;92414;-40
2022/12/07 07:31:50;;;;;;;;;;;7.20;77.90;;;;;;5039221;28;92982;-40
2022/12/07 07:34:15;;;;;;;;;;;7.30;77.90;;;;;;5039675;28;92152;-40
2022/12/07 07:36:41;;;;;;;;;;;7.20;77.90;;;;;;5039880;27;94236;-40
2022/12/07 07:39:06;;;;;;;;;;;7.30;78.00;;;;;;5038112;28;93063;-41
2022/12/07 07:41:32;;;;;;;;;;;7.20;77.90;;;;;;5039637;28;92226;-40
2022/12/07 07:43:57;;;;;;;;;;;7.20;77.90;;;;;;5039139;28;92819;-40
2022/12/07 07:46:23;;;;;;;;;;;7.20;77.90;;;;;;5038493;28;93237;-40
2022/12/07 07:48:48;;;;;;;;;;;7.20;77.90;;;;;;5037833;28;92115;-40
2022/12/07 07:51:14;;;;;;;;;;;7.20;78.00;;;;;;5042058;28;92354;-40
2022/12/07 07:53:39;;;;;;;;;;;7.30;78.00;;;;;;5038989;28;92402;-40
2022/12/07 07:56:05;;;;;;;;;;;7.30;78.00;;;;;;5039312;28;92321;-40
2022/12/07 07:58:30;;;;;;;;;;;7.20;78.00;;;;;;5038723;28;93267;-40
2022/12/07 08:00:56;;;;;;;;;;;7.30;78.00;;;;;;5039890;28;91410;-40
2022/12/07 08:03:21;;;;;;;;;;;7.30;78.00;;;;;;5039280;28;92029;-41
2022/12/07 08:05:47;;;;;;;;;;;7.30;78.00;;;;;;5038826;28;92968;-40
2022/12/07 08:08:12;;;;;;;;;;;7.30;77.90;;;;;;5038432;28;93086;-40
2022/12/07 08:10:38;;;;;;;;;;;7.30;78.00;;;;;;5039092;28;92624;-40
2022/12/07 08:13:15;;;;;;;;;;;7.30;78.00;;;;;;5041750;28;92798;-40
2022/12/07 08:15:45;;;;;;;;;;;7.30;78.00;;;;;;5039008;27;93732;-40
2022/12/07 08:18:11;;;;;;;;;;;7.30;78.00;;;;;;5038314;28;94483;-41
2022/12/07 08:20:37;;;;;;;;;;;7.30;77.90;;;;;;5038845;28;92205;-40
2022/12/07 08:23:03;;;;;;;;;;;7.30;77.80;;;;;;5039027;27;92003;-40
2022/12/07 08:25:29;;;;;;;;;;;7.30;77.90;;;;;;5039125;28;92512;-40
2022/12/07 08:27:55;;;;;;;;;;;7.30;77.90;;;;;;5038794;28;92124;-40
2022/12/07 08:30:21;;;;;;;;;;;7.30;77.90;;;;;;5038731;27;92315;-40
2022/12/07 08:32:47;;;;;;;;;;;7.30;77.80;;;;;;5037327;28;95338;-40
2022/12/07 08:35:13;;;;;;;;;;;7.40;77.90;;;;;;5041987;28;92121;-40
2022/12/07 08:37:39;;;;;;;;;;;7.30;78.00;;;;;;5038136;28;92997;-40
2022/12/07 08:40:05;;;;;;;;;;;7.30;77.90;;;;;;5038695;28;92113;-40
2022/12/07 08:42:37;;;;;;;;;;;7.30;77.90;;;;;;5038590;27;93758;-40
2022/12/07 08:45:06;;;;;;;;;;;7.30;77.90;;;;;;5037592;28;94455;-41
2022/12/07 08:47:32;;;;;;;;;;;7.30;77.90;;;;;;5038982;28;92018;-40
2022/12/07 08:50:03;;;;;;;;;;;7.40;78.00;;;;;;5040628;27;92351;-40
2022/12/07 08:52:29;;;;;;;;;;;7.40;78.00;;;;;;5041814;28;92990;-40
2022/12/07 08:54:55;;;;;;;;;;;7.40;78.10;;;;;;5041825;28;92176;-40
2022/12/07 08:57:21;;;;;;;;;;;7.40;78.00;;;;;;5044098;27;92980;-41
2022/12/07 08:59:46;;;;;;;;;;;7.40;78.00;;;;;;5041980;28;92145;-41
2022/12/07 09:02:12;;;;;;;;;;;7.40;78.00;;;;;;5041967;28;92390;-40
2022/12/07 09:04:37;;;;;;;;;;;7.40;78.00;;;;;;5041163;28;93204;-41
2022/12/07 09:07:03;;;;;;;;;;;7.40;78.00;;;;;;5041959;28;92498;-40
2022/12/07 09:09:29;;;;;;;;;;;7.40;78.00;;;;;;5041763;27;93729;-41
2022/12/07 09:11:55;;;;;;;;;;;7.40;78.00;;;;;;5041478;28;93007;-41
2022/12/07 09:14:20;;;;;;;;;;;7.40;78.00;;;;;;5042483;28;91421;-41
2022/12/07 09:16:46;;;;;;;;;;;7.50;78.10;;;;;;5044558;27;92000;-40
2022/12/07 09:19:11;;;;;;;;;;;7.50;78.10;;;;;;5041577;28;92168;-40
2022/12/07 09:21:37;;;;;;;;;;;7.50;78.00;;;;;;5040807;28;93016;-40
2022/12/07 09:24:03;;;;;;;;;;;7.50;78.00;;;;;;5041341;28;93042;-40
2022/12/07 09:26:28;;;;;;;;;;;7.50;78.10;;;;;;5041713;28;92184;-41
2022/12/07 09:28:54;;;;;;;;;;;7.50;78.20;;;;;;5041369;28;92845;-41
2022/12/07 09:31:19;;;;;;;;;;;7.50;78.10;;;;;;5041034;28;92948;-41
2022/12/07 09:33:45;;;;;;;;;;;7.50;78.10;;;;;;5041704;28;92193;-41
2022/12/07 09:36:10;;;;;;;;;;;7.50;78.00;;;;;;5041030;27;92850;-40
2022/12/07 09:38:35;;;;;;;;;;;7.50;78.10;;;;;;5044505;28;92519;-40
2022/12/07 09:41:05;;;;;;;;;;;7.50;78.10;;;;;;5041556;28;92032;-40
2022/12/07 09:43:31;;;;;;;;;;;7.50;78.20;;;;;;5040597;28;94107;-40
2022/12/07 09:45:56;;;;;;;;;;;7.50;78.20;;;;;;5040092;28;93080;-40
2022/12/07 09:48:32;;;;;;;;;;;7.50;78.20;;;;;;5041597;28;93444;-40
2022/12/07 09:51:00;;;;;;;;;;;7.60;78.30;;;;;;5040584;28;93069;-40
2022/12/07 09:53:27;;;;;;;;;;;7.60;78.20;;;;;;5041150;28;92122;-40
2022/12/07 09:55:53;;;;;;;;;;;7.60;78.20;;;;;;5041142;28;93980;-40
2022/12/07 09:58:28;;;;;;;;;;;7.60;78.30;;;;;;5040735;28;93071;-40
2022/12/07 10:00:59;;;;;;;;;;;7.50;78.30;;;;;;5043787;27;92024;-40
2022/12/07 10:03:28;;;;;;;;;;;7.60;78.20;;;;;;5040582;28;92303;-40
2022/12/07 10:05:54;;;;;;;;;;;7.60;78.30;;;;;;5040909;28;92163;-40
2022/12/07 10:08:20;;;;;;;;;;;7.60;78.30;;;;;;5040904;27;94143;-40
2022/12/07 10:10:49;;;;;;;;;;;7.60;78.50;;;;;;5039661;28;94114;-40
2022/12/07 10:13:18;;;;;;;;;;;7.60;78.50;;;;;;5040927;28;92391;-40
2022/12/07 10:15:48;;;;;;;;;;;7.60;78.40;;;;;;5040512;28;92096;-40
2022/12/07 10:18:32;;;;;;;;;;;7.60;78.50;;;;;;5040326;28;93001;-40
2022/12/07 10:21:03;;;;;;;;;;;7.60;78.40;;;;;;5040717;27;92165;-40
2022/12/07 10:23:28;;;;;;;;;;;7.60;78.60;;;;;;5043305;27;92409;-40
2022/12/07 10:25:54;;;;;;;;;;;7.60;78.60;;;;;;5040716;28;92056;-40
2022/12/07 10:28:20;;;;;;;;;;;7.70;78.70;;;;;;5040587;27;92393;-40
2022/12/07 10:30:51;;;;;;;;;;;7.60;78.70;;;;;;5039940;28;93491;-40
2022/12/07 10:33:37;;;;;;;;;;;7.60;78.70;;;;;;5040372;28;92156;-40
2022/12/07 10:36:23;;;;;;;;;;;7.60;78.70;;;;;;5038937;28;93502;-40
2022/12/07 10:39:12;;;;;;;;;;;7.60;78.80;;;;;;5039644;28;92961;-40
2022/12/07 10:42:05;;;;;;;;;;;7.60;78.70;;;;;;5034416;28;92232;-40
2022/12/07 10:44:34;;;;;;;;;;;7.60;78.70;;;;;;5038134;28;92827;-40
2022/12/07 10:47:05;;;;;;;;;;;7.70;78.70;;;;;;5042587;28;94929;-41
2022/12/07 10:49:49;;;;;;;;;;;7.70;78.70;;;;;;5040415;28;92027;-41
2022/12/07 10:52:15;;;;;;;;;;;7.70;78.80;;;;;;5039838;27;93045;-41
2022/12/07 10:54:59;;;;;;;;;;;7.70;78.70;;;;;;5040736;28;91551;-41
2022/12/07 10:57:46;;;;;;;;;;;7.70;78.80;;;;;;5040296;27;92280;-41
2022/12/07 11:00:11;;;;;;;;;;;7.70;78.70;;;;;;5039907;28;93163;-41
2022/12/07 11:02:55;;;;;;;;;;;7.70;78.70;;;;;;5039692;28;92901;-41
2022/12/07 11:05:21;;;;;;;;;;;7.80;78.80;;;;;;5040194;27;92412;-41
2022/12/07 11:08:11;;;;;;;;;;;7.80;78.80;;;;;;5039481;28;93142;-40
2022/12/07 11:10:39;;;;;;;;;;;7.80;78.90;;;;;;5043136;28;91932;-40
2022/12/07 11:13:17;;;;;;;;;;;7.70;78.70;;;;;;5038093;28;94603;-40
2022/12/07 11:15:42;;;;;;;;;;;7.80;78.80;;;;;;5040195;28;92095;-40
2022/12/07 11:18:14;;;;;;;;;;;7.80;78.80;;;;;;5040300;28;92454;-40
2022/12/07 11:20:46;;;;;;;;;;;7.80;78.90;;;;;;5039576;28;92512;-40
2022/12/07 11:23:30;;;;;;;;;;;7.80;78.90;;;;;;5039832;28;92214;-40
2022/12/07 11:26:14;;;;;;;;;;;7.80;78.80;;;;;;5039816;27;92341;-40
2022/12/07 11:28:39;;;;;;;;;;;7.90;78.90;;;;;;5038344;28;95260;-40
2022/12/07 11:31:12;;;;;;;;;;;7.80;79.00;;;;;;5042820;28;92121;-40
2022/12/07 11:33:42;;;;;;;;;;;7.80;79.00;;;;;;5039204;28;92792;-40
2022/12/07 11:36:14;;;;;;;;;;;7.80;78.90;;;;;;5039740;28;92032;-40
2022/12/07 11:38:44;;;;;;;;;;;7.90;79.00;;;;;;5039844;28;92401;-40
2022/12/07 11:41:12;;;;;;;;;;;7.90;79.00;;;;;;5039094;28;93208;-40
2022/12/07 11:43:46;;;;;;;;;;;7.90;79.00;;;;;;5039128;28;92270;-40
2022/12/07 11:46:13;;;;;;;;;;;7.90;79.10;;;;;;5039890;28;92501;-40
2022/12/07 11:48:50;;;;;;;;;;;7.90;79.00;;;;;;5038668;28;94716;-40
2022/12/07 11:51:16;;;;;;;;;;;8.00;79.20;;;;;;5039481;28;92137;-40
2022/12/07 11:53:47;;;;;;;;;;;8.00;79.10;;;;;;5041319;27;93057;-40
2022/12/07 11:56:18;;;;;;;;;;;7.90;79.20;;;;;;5039198;28;92264;-40
2022/12/07 11:59:10;;;;;;;;;;;8.00;79.20;;;;;;5039279;27;93740;-40
2022/12/07 12:01:35;;;;;;;;;;;8.00;79.30;;;;;;5038685;28;94578;-40
2022/12/07 12:04:00;;;;;;;;;;;8.00;79.30;;;;;;5039297;28;92520;-40
2022/12/07 12:06:26;;;;;;;;;;;8.00;79.30;;;;;;5039403;27;92317;-40
2022/12/07 12:09:06;;;;;;;;;;;8.00;79.30;;;;;;5038584;28;93558;-40
2022/12/07 12:11:32;;;;;;;;;;;8.00;79.30;;;;;;5039681;28;91416;-40
2022/12/07 12:13:57;;;;;;;;;;;8.00;79.40;;;;;;5039186;28;92153;-40
2022/12/07 12:16:29;;;;;;;;;;;8.00;79.20;;;;;;5041359;28;94521;-40
2022/12/07 12:19:10;;;;;;;;;;;8.00;79.40;;;;;;5038341;28;93028;-40
2022/12/07 12:21:36;;;;;;;;;;;8.00;79.40;;;;;;5038582;28;93207;-40
2022/12/07 12:24:10;;;;;;;;;;;8.00;79.50;;;;;;5039430;27;92096;-40
2022/12/07 12:26:36;;;;;;;;;;;8.10;79.30;;;;;;5042632;27;92544;-40
2022/12/07 12:29:03;;;;;;;;;;;8.10;79.40;;;;;;5041728;28;94021;-40
2022/12/07 12:31:32;;;;;;;;;;;8.10;79.40;;;;;;5042462;28;92126;-40
2022/12/07 12:34:00;;;;;;;;;;;8.10;79.40;;;;;;5042414;27;92742;-40
2022/12/07 12:36:25;;;;;;;;;;;8.10;79.40;;;;;;5042553;28;92257;-40
2022/12/07 12:38:54;;;;;;;;;;;8.10;79.30;;;;;;5045254;28;92385;-41
2022/12/07 12:44:14;;;;;;;;;;;8.20;79.40;;;;;;5030974;28;93209;-40
2022/12/07 12:46:47;;;;;;;;;;;8.20;79.30;;;;;;5041866;28;93119;-41
2022/12/07 12:49:15;;;;;;;;;;;8.20;79.60;;;;;;5041346;28;94420;-40
2022/12/07 12:51:46;;;;;;;;;;;8.20;79.50;;;;;;5042067;28;92165;-40
2022/12/07 12:54:18;;;;;;;;;;;8.20;79.60;;;;;;5042061;27;93828;-40
2022/12/07 12:56:56;;;;;;;;;;;8.20;79.30;;;;;;5041541;28;92414;-40
2022/12/07 12:59:21;;;;;;;;;;;8.20;79.70;;;;;;5041679;28;92145;-40
2022/12/07 13:01:47;;;;;;;;;;;8.10;79.70;;;;;;5045161;28;92545;-40
2022/12/07 13:04:38;;;;;;;;;;;8.20;79.80;;;;;;5042170;28;92120;-40
2022/12/07 13:07:03;;;;;;;;;;;8.20;80.00;;;;;;5042070;27;92002;-40
2022/12/07 13:09:31;;;;;;;;;;;8.20;79.90;;;;;;5040551;28;93251;-40
2022/12/07 13:12:02;;;;;;;;;;;8.20;79.70;;;;;;5041732;28;92258;-40
2022/12/07 13:14:36;;;;;;;;;;;8.20;80.10;;;;;;5041571;27;92448;-41
2022/12/07 13:17:02;;;;;;;;;;;8.20;80.10;;;;;;5041225;28;92704;-41
2022/12/07 13:19:43;;;;;;;;;;;8.20;80.10;;;;;;5041851;28;92149;-41
2022/12/07 13:22:27;;;;;;;;;;;8.20;80.10;;;;;;5043887;27;93800;-41
2022/12/07 13:24:56;;;;;;;;;;;8.20;80.00;;;;;;5041667;27;92284;-41
2022/12/07 13:27:22;;;;;;;;;;;8.30;80.00;;;;;;5041654;27;93867;-40
2022/12/07 13:29:48;;;;;;;;;;;8.30;79.90;;;;;;5041088;28;93373;-41
2022/12/07 13:32:27;;;;;;;;;;;8.30;79.90;;;;;;5041370;28;92148;-40
2022/12/07 13:34:52;;;;;;;;;;;8.30;79.90;;;;;;5040561;28;93676;-40
2022/12/07 13:37:28;;;;;;;;;;;8.30;80.10;;;;;;5040120;28;93129;-40
2022/12/07 13:39:53;;;;;;;;;;;8.30;80.10;;;;;;5041479;28;92609;-41
2022/12/07 13:42:19;;;;;;;;;;;8.30;80.00;;;;;;5041453;28;92253;-40
2022/12/07 13:44:44;;;;;;;;;;;8.30;79.90;;;;;;5043047;28;93013;-40
2022/12/07 13:47:32;;;;;;;;;;;8.30;80.00;;;;;;5041548;28;92345;-40
2022/12/07 13:49:58;;;;;;;;;;;8.40;80.00;;;;;;5040489;27;93004;-40
2022/12/07 13:52:30;;;;;;;;;;;8.40;80.00;;;;;;5041459;28;91467;-40
2022/12/07 13:55:05;;;;;;;;;;;8.40;80.00;;;;;;5041096;27;92022;-41
2022/12/07 13:57:34;;;;;;;;;;;8.30;79.90;;;;;;5040524;28;93028;-40
2022/12/07 14:00:00;;;;;;;;;;;8.30;80.10;;;;;;5040342;28;93145;-40
2022/12/07 14:02:30;;;;;;;;;;;8.30;80.10;;;;;;5041268;27;93483;-41
2022/12/07 14:05:10;;;;;;;;;;;8.40;80.10;;;;;;5040288;28;94341;-41
2022/12/07 14:07:36;;;;;;;;;;;8.40;80.20;;;;;;5044251;28;92191;-41
2022/12/07 14:10:04;;;;;;;;;;;8.40;80.10;;;;;;5039938;28;94705;-41
2022/12/07 14:12:30;;;;;;;;;;;8.40;80.30;;;;;;5040950;28;92145;-41
2022/12/07 14:14:56;;;;;;;;;;;8.40;80.30;;;;;;5040951;28;92343;-41
2022/12/07 14:17:23;;;;;;;;;;;8.40;80.30;;;;;;5040828;28;92484;-41
2022/12/07 14:19:56;;;;;;;;;;;8.40;80.20;;;;;;5040626;28;92058;-41
2022/12/07 14:22:34;;;;;;;;;;;8.40;80.20;;;;;;5040556;27;93678;-41
2022/12/07 14:25:18;;;;;;;;;;;8.40;80.20;;;;;;5039198;28;95428;-41
2022/12/07 14:28:02;;;;;;;;;;;8.40;80.10;;;;;;5040699;27;92194;-40
2022/12/07 14:30:28;;;;;;;;;;;8.50;80.20;;;;;;5043218;28;92417;-40
2022/12/07 14:32:59;;;;;;;;;;;8.50;80.20;;;;;;5040428;28;92527;-40
2022/12/07 14:35:24;;;;;;;;;;;8.50;80.30;;;;;;5040590;27;92373;-40
2022/12/07 14:37:50;;;;;;;;;;;8.50;80.30;;;;;;5039796;28;94492;-40
2022/12/07 14:40:24;;;;;;;;;;;8.50;80.30;;;;;;5040353;28;92164;-40
2022/12/07 14:42:57;;;;;;;;;;;8.50;80.30;;;;;;5040801;27;93967;-40
2022/12/07 14:45:23;;;;;;;;;;;8.50;80.20;;;;;;5039391;28;93099;-40
2022/12/07 14:47:48;;;;;;;;;;;8.50;80.30;;;;;;5040120;27;92172;-40
2022/12/07 14:50:15;;;;;;;;;;;8.50;80.30;;;;;;5039713;28;93127;-40